createdAt,value
2019-06-20T00:09:52.291Z,26.7
2019-06-20T00:19:48.209Z,26.7
2019-06-20T00:29:47.458Z,26.7
2019-06-20T00:39:46.681Z,26.7
2019-06-20T00:49:45.918Z,26.8
2019-06-20T00:59:45.161Z,26.7
2019-06-20T01:09:44.391Z,26.7
2019-06-20T01:19:43.627Z,26.7
2019-06-20T01:29:42.861Z,26.7
2019-06-20T01:39:42.102Z,26.6
2019-06-20T01:49:41.363Z,26.6
2019-06-20T01:59:40.573Z,26.6
2019-06-20T02:09:39.809Z,26.6
2019-06-20T02:19:39.037Z,26.6
2019-06-20T02:39:37.515Z,26.7
2019-06-20T02:49:36.747Z,26.8
2019-06-20T02:59:35.975Z,26.8
2019-06-20T03:09:35.217Z,26.8
2019-06-20T03:19:34.446Z,26.7
2019-06-20T03:29:33.679Z,26.8
2019-06-20T03:39:32.917Z,26.8
2019-06-20T03:49:32.158Z,26.8
2019-06-20T03:59:31.389Z,26.8
2019-06-20T04:09:30.624Z,26.8
2019-06-20T04:19:29.858Z,26.8
2019-06-20T04:29:29.104Z,26.8
2019-06-20T04:39:28.350Z,26.8
2019-06-20T04:49:27.620Z,26.8
2019-06-20T04:59:26.814Z,26.9
2019-06-20T05:09:26.046Z,26.9
2019-06-20T05:19:25.345Z,26.9
2019-06-20T05:29:24.513Z,27
2019-06-20T05:39:23.748Z,27
2019-06-20T05:49:23.094Z,27.1
2019-06-20T05:59:22.278Z,27.1
2019-06-20T06:09:21.461Z,27.1
2019-06-20T06:19:20.745Z,27.1
2019-06-20T06:29:19.936Z,27.2
2019-06-20T06:39:19.176Z,27.2
2019-06-20T06:49:18.413Z,27.2
2019-06-20T06:59:17.641Z,27.2
2019-06-20T07:09:16.879Z,27.3
2019-06-20T07:19:16.113Z,27.2
2019-06-20T07:29:15.355Z,27.2
2019-06-20T07:39:14.594Z,27.3
2019-06-20T07:49:13.827Z,27.3
2019-06-20T07:59:13.064Z,27.3
2019-06-20T08:09:12.305Z,27.3
2019-06-20T08:19:11.536Z,27.3
2019-06-20T08:29:20.550Z,27.3
2019-06-20T08:39:10.023Z,27.3
2019-06-20T08:49:09.258Z,27.3
2019-06-20T08:59:23.356Z,27.4
2019-06-20T09:09:07.733Z,27.4
2019-06-20T09:19:06.972Z,27.4
2019-06-20T09:29:06.210Z,27.4
2019-06-20T09:39:05.448Z,27.4
2019-06-20T09:49:04.693Z,27.4
2019-06-20T09:59:03.919Z,27.4
2019-06-20T10:09:03.175Z,27.4
2019-06-20T10:19:02.403Z,27.5
2019-06-20T10:29:01.635Z,27.5
2019-06-20T10:39:00.871Z,27.5
2019-06-20T10:49:00.113Z,27.5
2019-06-20T10:58:59.346Z,27.6
2019-06-20T11:08:58.577Z,27.6
2019-06-20T11:18:57.854Z,27.6
2019-06-20T11:28:57.092Z,27.6
2019-06-20T11:38:56.296Z,27.7
2019-06-20T11:48:55.532Z,27.7
2019-06-20T11:58:54.762Z,27.7
2019-06-20T12:08:54.000Z,27.8
2019-06-20T12:18:53.254Z,27.7
2019-06-20T12:28:52.857Z,27.7
2019-06-20T12:38:52.060Z,27.7
2019-06-20T12:48:51.324Z,27.6
2019-06-20T12:58:50.543Z,27.6
2019-06-20T13:08:49.779Z,27.6
2019-06-20T13:18:50.367Z,27.6
2019-06-20T13:29:00.489Z,27.6
2019-06-20T21:10:01.334Z,26.6
2019-06-20T21:20:00.571Z,26.6
2019-06-20T21:29:59.814Z,26.6
2019-06-20T21:39:59.051Z,26.6
2019-06-20T21:49:58.289Z,26.6
2019-06-20T21:59:57.519Z,26.6
2019-06-20T22:09:56.858Z,26.7
2019-06-20T22:19:56.132Z,26.7
2019-06-20T22:29:55.438Z,26.7
2019-06-20T22:39:54.762Z,26.7
2019-06-20T22:49:54.073Z,26.8
2019-06-20T22:59:53.386Z,26.8
2019-06-20T23:09:52.626Z,26.8
2019-06-20T23:19:51.853Z,26.8
2019-06-20T23:29:51.092Z,26.8
2019-06-20T23:39:50.325Z,26.8
2019-06-20T23:49:49.613Z,26.8
2019-06-20T23:59:48.855Z,26.7
